sensor_id;sensor_type;location;lat;lon;timestamp;temperature;humidity
62007;DHT22;47963;53.008;6.754;2022-09-29T00:01:29;7.90;99.90
62007;DHT22;47963;53.008;6.754;2022-09-29T00:03:58;7.80;99.90
62007;DHT22;47963;53.008;6.754;2022-09-29T00:06:23;7.80;99.90
62007;DHT22;47963;53.008;6.754;2022-09-29T00:08:49;7.80;99.90
62007;DHT22;47963;53.008;6.754;2022-09-29T00:11:17;7.80;99.90
62007;DHT22;47963;53.008;6.754;2022-09-29T00:13:44;7.80;99.90
62007;DHT22;47963;53.008;6.754;2022-09-29T00:16:11;7.80;99.90
62007;DHT22;47963;53.008;6.754;2022-09-29T00:18:37;7.80;99.90
62007;DHT22;47963;53.008;6.754;2022-09-29T00:21:06;7.80;99.90
62007;DHT22;47963;53.008;6.754;2022-09-29T00:23:33;7.70;99.90
62007;DHT22;47963;53.008;6.754;2022-09-29T00:26:11;7.70;99.90
62007;DHT22;47963;53.008;6.754;2022-09-29T00:28:39;7.70;99.90
62007;DHT22;47963;53.008;6.754;2022-09-29T00:31:06;7.80;99.90
62007;DHT22;47963;53.008;6.754;2022-09-29T00:33:34;7.80;99.90
62007;DHT22;47963;53.008;6.754;2022-09-29T00:36:03;7.80;99.90
62007;DHT22;47963;53.008;6.754;2022-09-29T00:38:30;7.80;99.90
62007;DHT22;47963;53.008;6.754;2022-09-29T00:40:56;7.80;99.90
62007;DHT22;47963;53.008;6.754;2022-09-29T00:43:44;7.80;99.90
62007;DHT22;47963;53.008;6.754;2022-09-29T00:46:11;7.80;99.90
62007;DHT22;47963;53.008;6.754;2022-09-29T00:48:38;7.70;99.90
62007;DHT22;47963;53.008;6.754;2022-09-29T00:51:04;7.70;99.90
62007;DHT22;47963;53.008;6.754;2022-09-29T00:53:30;7.70;99.90
62007;DHT22;47963;53.008;6.754;2022-09-29T00:56:10;7.80;99.90
62007;DHT22;47963;53.008;6.754;2022-09-29T00:58:41;7.70;99.90
62007;DHT22;47963;53.008;6.754;2022-09-29T01:01:11;7.70;99.90
62007;DHT22;47963;53.008;6.754;2022-09-29T01:03:42;7.80;99.90
62007;DHT22;47963;53.008;6.754;2022-09-29T01:06:16;7.70;99.90
62007;DHT22;47963;53.008;6.754;2022-09-29T01:08:56;7.70;99.90
62007;DHT22;47963;53.008;6.754;2022-09-29T01:11:24;7.70;99.90
62007;DHT22;47963;53.008;6.754;2022-09-29T01:13:51;7.80;99.90
62007;DHT22;47963;53.008;6.754;2022-09-29T01:16:17;7.70;99.90
62007;DHT22;47963;53.008;6.754;2022-09-29T01:18:43;7.60;99.90
62007;DHT22;47963;53.008;6.754;2022-09-29T01:24:15;7.60;99.90
62007;DHT22;47963;53.008;6.754;2022-09-29T01:41:17;7.40;99.90
62007;DHT22;47963;53.008;6.754;2022-09-29T01:43:41;7.30;99.90
62007;DHT22;47963;53.008;6.754;2022-09-29T01:46:16;7.30;99.90
62007;DHT22;47963;53.008;6.754;2022-09-29T01:48:48;7.30;99.90
62007;DHT22;47963;53.008;6.754;2022-09-29T01:51:23;7.40;99.90
62007;DHT22;47963;53.008;6.754;2022-09-29T01:53:51;7.40;99.90
62007;DHT22;47963;53.008;6.754;2022-09-29T01:56:26;7.40;99.90
62007;DHT22;47963;53.008;6.754;2022-09-29T01:58:56;7.40;99.90
62007;DHT22;47963;53.008;6.754;2022-09-29T02:01:27;7.40;99.90
62007;DHT22;47963;53.008;6.754;2022-09-29T02:04:06;7.40;99.90
62007;DHT22;47963;53.008;6.754;2022-09-29T02:06:38;7.40;99.90
62007;DHT22;47963;53.008;6.754;2022-09-29T02:09:15;7.40;99.90
62007;DHT22;47963;53.008;6.754;2022-09-29T02:11:44;7.40;99.90
62007;DHT22;47963;53.008;6.754;2022-09-29T02:14:18;7.40;99.90
62007;DHT22;47963;53.008;6.754;2022-09-29T02:16:54;7.40;99.90
62007;DHT22;47963;53.008;6.754;2022-09-29T02:19:24;7.40;99.90
62007;DHT22;47963;53.008;6.754;2022-09-29T02:21:51;7.40;99.90
62007;DHT22;47963;53.008;6.754;2022-09-29T02:24:20;7.30;99.90
62007;DHT22;47963;53.008;6.754;2022-09-29T02:26:46;7.40;99.90
62007;DHT22;47963;53.008;6.754;2022-09-29T02:29:12;7.40;99.90
62007;DHT22;47963;53.008;6.754;2022-09-29T02:31:41;7.40;99.90
62007;DHT22;47963;53.008;6.754;2022-09-29T02:34:09;7.40;99.90
62007;DHT22;47963;53.008;6.754;2022-09-29T02:39:20;7.40;99.90
62007;DHT22;47963;53.008;6.754;2022-09-29T02:44:46;7.40;99.90
62007;DHT22;47963;53.008;6.754;2022-09-29T02:47:40;7.30;99.90
62007;DHT22;47963;53.008;6.754;2022-09-29T02:58:43;7.30;99.90
62007;DHT22;47963;53.008;6.754;2022-09-29T03:01:12;7.20;99.90
62007;DHT22;47963;53.008;6.754;2022-09-29T03:03:39;7.10;99.90
62007;DHT22;47963;53.008;6.754;2022-09-29T03:06:05;7.20;99.90
62007;DHT22;47963;53.008;6.754;2022-09-29T03:08:31;7.10;99.90
62007;DHT22;47963;53.008;6.754;2022-09-29T03:10:57;7.00;99.90
62007;DHT22;47963;53.008;6.754;2022-09-29T03:13:24;6.90;99.90
62007;DHT22;47963;53.008;6.754;2022-09-29T03:15:49;7.00;99.90
62007;DHT22;47963;53.008;6.754;2022-09-29T03:18:15;6.90;99.90
62007;DHT22;47963;53.008;6.754;2022-09-29T03:20:41;6.90;99.90
62007;DHT22;47963;53.008;6.754;2022-09-29T03:23:06;6.90;99.90
62007;DHT22;47963;53.008;6.754;2022-09-29T03:25:32;6.90;99.90
62007;DHT22;47963;53.008;6.754;2022-09-29T03:27:58;6.80;99.90
62007;DHT22;47963;53.008;6.754;2022-09-29T03:30:23;6.80;99.90
62007;DHT22;47963;53.008;6.754;2022-09-29T03:32:49;6.90;99.90
62007;DHT22;47963;53.008;6.754;2022-09-29T03:35:15;6.90;99.90
62007;DHT22;47963;53.008;6.754;2022-09-29T03:37:40;6.90;99.90
62007;DHT22;47963;53.008;6.754;2022-09-29T03:40:07;6.90;99.90
62007;DHT22;47963;53.008;6.754;2022-09-29T03:42:32;6.80;99.90
62007;DHT22;47963;53.008;6.754;2022-09-29T03:44:58;6.80;99.90
62007;DHT22;47963;53.008;6.754;2022-09-29T03:47:24;6.80;99.90
62007;DHT22;47963;53.008;6.754;2022-09-29T03:49:49;6.80;99.90
62007;DHT22;47963;53.008;6.754;2022-09-29T03:52:15;6.80;99.90
62007;DHT22;47963;53.008;6.754;2022-09-29T03:54:41;6.80;99.90
62007;DHT22;47963;53.008;6.754;2022-09-29T03:57:07;6.80;99.90
62007;DHT22;47963;53.008;6.754;2022-09-29T03:59:32;6.80;99.90
62007;DHT22;47963;53.008;6.754;2022-09-29T04:01:58;6.70;99.90
62007;DHT22;47963;53.008;6.754;2022-09-29T04:04:24;6.80;99.90
62007;DHT22;47963;53.008;6.754;2022-09-29T04:06:49;6.80;99.90
62007;DHT22;47963;53.008;6.754;2022-09-29T04:09:15;6.80;99.90
62007;DHT22;47963;53.008;6.754;2022-09-29T04:11:41;6.80;99.90
62007;DHT22;47963;53.008;6.754;2022-09-29T04:14:06;6.80;99.90
62007;DHT22;47963;53.008;6.754;2022-09-29T04:16:32;6.80;99.90
62007;DHT22;47963;53.008;6.754;2022-09-29T04:18:57;6.70;99.90
62007;DHT22;47963;53.008;6.754;2022-09-29T04:21:23;6.70;99.90
62007;DHT22;47963;53.008;6.754;2022-09-29T04:23:49;6.70;99.90
62007;DHT22;47963;53.008;6.754;2022-09-29T04:26:15;6.70;99.90
62007;DHT22;47963;53.008;6.754;2022-09-29T04:28:41;6.70;99.90
62007;DHT22;47963;53.008;6.754;2022-09-29T04:31:07;6.60;99.90
62007;DHT22;47963;53.008;6.754;2022-09-29T04:33:33;6.60;99.90
62007;DHT22;47963;53.008;6.754;2022-09-29T04:36:00;6.60;99.90
62007;DHT22;47963;53.008;6.754;2022-09-29T04:38:26;6.60;99.90
62007;DHT22;47963;53.008;6.754;2022-09-29T04:40:51;6.60;99.90
62007;DHT22;47963;53.008;6.754;2022-09-29T04:43:17;6.50;99.90
62007;DHT22;47963;53.008;6.754;2022-09-29T04:45:43;6.60;99.90
62007;DHT22;47963;53.008;6.754;2022-09-29T04:48:09;6.50;99.90
62007;DHT22;47963;53.008;6.754;2022-09-29T04:50:34;6.50;99.90
62007;DHT22;47963;53.008;6.754;2022-09-29T04:53:00;6.60;99.90
62007;DHT22;47963;53.008;6.754;2022-09-29T04:55:26;6.60;99.90
62007;DHT22;47963;53.008;6.754;2022-09-29T04:57:52;6.50;99.90
62007;DHT22;47963;53.008;6.754;2022-09-29T05:00:18;6.50;99.90
62007;DHT22;47963;53.008;6.754;2022-09-29T05:02:44;6.40;99.90
62007;DHT22;47963;53.008;6.754;2022-09-29T05:05:10;6.40;99.90
62007;DHT22;47963;53.008;6.754;2022-09-29T05:07:38;6.40;99.90
62007;DHT22;47963;53.008;6.754;2022-09-29T05:10:07;6.40;99.90
62007;DHT22;47963;53.008;6.754;2022-09-29T05:12:33;6.40;99.90
62007;DHT22;47963;53.008;6.754;2022-09-29T05:14:58;6.40;99.90
62007;DHT22;47963;53.008;6.754;2022-09-29T05:17:24;6.40;99.90
62007;DHT22;47963;53.008;6.754;2022-09-29T05:19:49;6.40;99.90
62007;DHT22;47963;53.008;6.754;2022-09-29T05:22:15;6.40;99.90
62007;DHT22;47963;53.008;6.754;2022-09-29T05:24:41;6.40;99.90
62007;DHT22;47963;53.008;6.754;2022-09-29T05:27:06;6.40;99.90
62007;DHT22;47963;53.008;6.754;2022-09-29T05:29:32;6.40;99.90
62007;DHT22;47963;53.008;6.754;2022-09-29T05:31:58;6.40;99.90
62007;DHT22;47963;53.008;6.754;2022-09-29T05:34:23;6.40;99.90
62007;DHT22;47963;53.008;6.754;2022-09-29T05:36:49;6.30;99.90
62007;DHT22;47963;53.008;6.754;2022-09-29T05:39:15;6.40;99.90
62007;DHT22;47963;53.008;6.754;2022-09-29T05:41:42;6.40;99.90
62007;DHT22;47963;53.008;6.754;2022-09-29T05:44:07;6.30;99.90
62007;DHT22;47963;53.008;6.754;2022-09-29T05:46:33;6.30;99.90
62007;DHT22;47963;53.008;6.754;2022-09-29T05:48:59;6.20;99.90
62007;DHT22;47963;53.008;6.754;2022-09-29T05:51:25;6.20;99.90
62007;DHT22;47963;53.008;6.754;2022-09-29T05:53:53;6.30;99.90
62007;DHT22;47963;53.008;6.754;2022-09-29T05:56:24;6.30;99.90
62007;DHT22;47963;53.008;6.754;2022-09-29T05:58:50;6.30;99.90
62007;DHT22;47963;53.008;6.754;2022-09-29T06:01:18;6.30;99.90
62007;DHT22;47963;53.008;6.754;2022-09-29T06:03:45;6.30;99.90
62007;DHT22;47963;53.008;6.754;2022-09-29T06:06:19;6.30;99.90
62007;DHT22;47963;53.008;6.754;2022-09-29T06:08:45;6.30;99.90
62007;DHT22;47963;53.008;6.754;2022-09-29T06:11:16;6.30;99.90
62007;DHT22;47963;53.008;6.754;2022-09-29T06:13:44;6.30;99.90
62007;DHT22;47963;53.008;6.754;2022-09-29T06:16:10;6.40;99.90
62007;DHT22;47963;53.008;6.754;2022-09-29T06:18:37;6.30;99.90
62007;DHT22;47963;53.008;6.754;2022-09-29T06:21:05;6.40;99.90
62007;DHT22;47963;53.008;6.754;2022-09-29T06:23:32;6.40;99.90
62007;DHT22;47963;53.008;6.754;2022-09-29T06:25:59;6.50;99.90
62007;DHT22;47963;53.008;6.754;2022-09-29T06:28:27;6.60;99.90
62007;DHT22;47963;53.008;6.754;2022-09-29T06:30:58;6.70;99.90
62007;DHT22;47963;53.008;6.754;2022-09-29T06:33:26;6.70;99.90
62007;DHT22;47963;53.008;6.754;2022-09-29T06:35:51;6.80;99.90
62007;DHT22;47963;53.008;6.754;2022-09-29T06:38:36;6.80;99.90
62007;DHT22;47963;53.008;6.754;2022-09-29T06:41:01;6.90;99.90
62007;DHT22;47963;53.008;6.754;2022-09-29T06:43:27;6.90;99.90
62007;DHT22;47963;53.008;6.754;2022-09-29T06:45:52;7.00;99.90
62007;DHT22;47963;53.008;6.754;2022-09-29T06:48:18;7.10;99.90
62007;DHT22;47963;53.008;6.754;2022-09-29T06:50:44;7.10;99.90
62007;DHT22;47963;53.008;6.754;2022-09-29T06:53:09;7.20;99.90
62007;DHT22;47963;53.008;6.754;2022-09-29T06:55:35;7.20;99.90
62007;DHT22;47963;53.008;6.754;2022-09-29T06:58:01;7.20;99.90
62007;DHT22;47963;53.008;6.754;2022-09-29T07:00:26;7.30;99.90
62007;DHT22;47963;53.008;6.754;2022-09-29T07:02:52;7.20;99.90
62007;DHT22;47963;53.008;6.754;2022-09-29T07:05:19;7.20;99.90
62007;DHT22;47963;53.008;6.754;2022-09-29T07:07:47;7.30;99.90
62007;DHT22;47963;53.008;6.754;2022-09-29T07:10:13;7.30;99.90
62007;DHT22;47963;53.008;6.754;2022-09-29T07:12:40;7.40;99.90
62007;DHT22;47963;53.008;6.754;2022-09-29T07:15:06;7.40;99.90
62007;DHT22;47963;53.008;6.754;2022-09-29T07:17:32;7.40;99.90
62007;DHT22;47963;53.008;6.754;2022-09-29T07:19:57;7.50;99.90
62007;DHT22;47963;53.008;6.754;2022-09-29T07:22:23;7.50;99.90
62007;DHT22;47963;53.008;6.754;2022-09-29T07:24:49;7.60;99.90
62007;DHT22;47963;53.008;6.754;2022-09-29T07:27:18;7.60;99.90
62007;DHT22;47963;53.008;6.754;2022-09-29T07:29:52;7.50;99.90
62007;DHT22;47963;53.008;6.754;2022-09-29T07:32:18;7.60;99.90
62007;DHT22;47963;53.008;6.754;2022-09-29T07:34:44;7.60;99.90
62007;DHT22;47963;53.008;6.754;2022-09-29T07:37:10;7.60;99.90
62007;DHT22;47963;53.008;6.754;2022-09-29T07:39:36;7.70;99.90
62007;DHT22;47963;53.008;6.754;2022-09-29T07:42:01;7.70;99.90
62007;DHT22;47963;53.008;6.754;2022-09-29T07:44:28;7.80;99.90
62007;DHT22;47963;53.008;6.754;2022-09-29T07:46:56;7.80;99.90
62007;DHT22;47963;53.008;6.754;2022-09-29T07:49:22;7.80;99.90
62007;DHT22;47963;53.008;6.754;2022-09-29T07:54:14;8.00;99.90
62007;DHT22;47963;53.008;6.754;2022-09-29T07:56:40;8.10;99.90
62007;DHT22;47963;53.008;6.754;2022-09-29T07:59:05;8.20;99.90
62007;DHT22;47963;53.008;6.754;2022-09-29T08:01:32;8.30;99.90
62007;DHT22;47963;53.008;6.754;2022-09-29T08:03:58;8.40;99.90
62007;DHT22;47963;53.008;6.754;2022-09-29T08:06:25;8.40;99.90
62007;DHT22;47963;53.008;6.754;2022-09-29T08:08:51;8.50;99.90
62007;DHT22;47963;53.008;6.754;2022-09-29T08:11:18;8.50;99.90
62007;DHT22;47963;53.008;6.754;2022-09-29T08:13:49;8.60;99.90
62007;DHT22;47963;53.008;6.754;2022-09-29T08:16:15;8.70;99.90
62007;DHT22;47963;53.008;6.754;2022-09-29T08:18:41;8.80;99.90
62007;DHT22;47963;53.008;6.754;2022-09-29T08:21:07;8.90;99.90
62007;DHT22;47963;53.008;6.754;2022-09-29T08:23:41;9.00;99.90
62007;DHT22;47963;53.008;6.754;2022-09-29T08:26:15;9.00;99.90
62007;DHT22;47963;53.008;6.754;2022-09-29T08:28:42;9.10;99.90
62007;DHT22;47963;53.008;6.754;2022-09-29T08:31:17;9.20;99.90
62007;DHT22;47963;53.008;6.754;2022-09-29T08:33:44;9.30;99.90
62007;DHT22;47963;53.008;6.754;2022-09-29T08:36:10;9.40;99.90
62007;DHT22;47963;53.008;6.754;2022-09-29T08:38:43;9.50;99.90
62007;DHT22;47963;53.008;6.754;2022-09-29T08:44:33;9.60;99.90
62007;DHT22;47963;53.008;6.754;2022-09-29T08:49:56;9.80;99.90
62007;DHT22;47963;53.008;6.754;2022-09-29T08:52:28;9.90;99.90
62007;DHT22;47963;53.008;6.754;2022-09-29T08:55:18;10.00;99.90
62007;DHT22;47963;53.008;6.754;2022-09-29T08:57:47;10.10;99.90
62007;DHT22;47963;53.008;6.754;2022-09-29T09:00:15;10.20;99.90
62007;DHT22;47963;53.008;6.754;2022-09-29T09:05:32;10.30;99.90
62007;DHT22;47963;53.008;6.754;2022-09-29T09:24:40;10.90;99.90
62007;DHT22;47963;53.008;6.754;2022-09-29T09:27:14;10.90;99.90
62007;DHT22;47963;53.008;6.754;2022-09-29T09:29:46;11.00;99.90
62007;DHT22;47963;53.008;6.754;2022-09-29T09:32:20;11.20;99.90
62007;DHT22;47963;53.008;6.754;2022-09-29T09:34:51;11.20;99.90
62007;DHT22;47963;53.008;6.754;2022-09-29T09:40:18;11.50;99.90
62007;DHT22;47963;53.008;6.754;2022-09-29T09:42:49;11.60;99.90
62007;DHT22;47963;53.008;6.754;2022-09-29T09:45:36;11.60;99.90
62007;DHT22;47963;53.008;6.754;2022-09-29T09:48:08;11.60;99.90
62007;DHT22;47963;53.008;6.754;2022-09-29T09:50:39;11.70;99.90
62007;DHT22;47963;53.008;6.754;2022-09-29T09:53:35;11.80;99.90
62007;DHT22;47963;53.008;6.754;2022-09-29T09:56:30;11.90;99.90
62007;DHT22;47963;53.008;6.754;2022-09-29T09:59:14;12.10;99.90
62007;DHT22;47963;53.008;6.754;2022-09-29T10:01:42;12.20;99.90
62007;DHT22;47963;53.008;6.754;2022-09-29T10:04:11;12.30;99.90
62007;DHT22;47963;53.008;6.754;2022-09-29T10:06:37;12.30;99.90
62007;DHT22;47963;53.008;6.754;2022-09-29T10:09:03;12.50;99.90
62007;DHT22;47963;53.008;6.754;2022-09-29T10:11:31;12.60;99.90
62007;DHT22;47963;53.008;6.754;2022-09-29T10:14:02;12.60;99.90
62007;DHT22;47963;53.008;6.754;2022-09-29T10:22:13;12.90;99.90
62007;DHT22;47963;53.008;6.754;2022-09-29T10:24:38;13.00;99.90
62007;DHT22;47963;53.008;6.754;2022-09-29T10:27:04;13.00;99.90
62007;DHT22;47963;53.008;6.754;2022-09-29T10:29:40;13.10;99.90
62007;DHT22;47963;53.008;6.754;2022-09-29T10:32:12;13.20;99.90
62007;DHT22;47963;53.008;6.754;2022-09-29T10:34:42;13.30;99.90
62007;DHT22;47963;53.008;6.754;2022-09-29T10:37:32;13.40;99.90
62007;DHT22;47963;53.008;6.754;2022-09-29T10:40:19;13.40;99.90
62007;DHT22;47963;53.008;6.754;2022-09-29T10:42:49;13.50;99.90
62007;DHT22;47963;53.008;6.754;2022-09-29T10:45:18;13.60;99.90
62007;DHT22;47963;53.008;6.754;2022-09-29T10:52:58;13.50;99.90
62007;DHT22;47963;53.008;6.754;2022-09-29T10:55:26;13.50;99.90
62007;DHT22;47963;53.008;6.754;2022-09-29T10:57:56;13.70;99.90
62007;DHT22;47963;53.008;6.754;2022-09-29T11:00:41;13.80;99.90
62007;DHT22;47963;53.008;6.754;2022-09-29T11:03:27;13.70;99.90
62007;DHT22;47963;53.008;6.754;2022-09-29T11:05:53;13.80;99.90
62007;DHT22;47963;53.008;6.754;2022-09-29T11:08:20;14.00;99.90
62007;DHT22;47963;53.008;6.754;2022-09-29T11:16:02;14.40;99.90
62007;DHT22;47963;53.008;6.754;2022-09-29T11:18:34;14.50;99.90
62007;DHT22;47963;53.008;6.754;2022-09-29T11:23:46;14.30;99.90
62007;DHT22;47963;53.008;6.754;2022-09-29T11:26:36;14.20;99.90
62007;DHT22;47963;53.008;6.754;2022-09-29T11:32:22;14.10;99.90
62007;DHT22;47963;53.008;6.754;2022-09-29T11:37:43;14.30;99.90
62007;DHT22;47963;53.008;6.754;2022-09-29T11:52:15;14.80;99.90
62007;DHT22;47963;53.008;6.754;2022-09-29T11:55:05;14.90;99.90
62007;DHT22;47963;53.008;6.754;2022-09-29T11:57:55;14.80;99.90
62007;DHT22;47963;53.008;6.754;2022-09-29T12:03:23;14.60;99.90
62007;DHT22;47963;53.008;6.754;2022-09-29T12:09:14;14.90;99.90
62007;DHT22;47963;53.008;6.754;2022-09-29T12:15:13;15.30;99.90
62007;DHT22;47963;53.008;6.754;2022-09-29T12:17:46;15.20;99.90
62007;DHT22;47963;53.008;6.754;2022-09-29T12:20:26;15.40;99.90
62007;DHT22;47963;53.008;6.754;2022-09-29T12:22:56;15.20;99.90
62007;DHT22;47963;53.008;6.754;2022-09-29T12:25:28;15.00;99.90
62007;DHT22;47963;53.008;6.754;2022-09-29T12:27:59;15.00;99.90
62007;DHT22;47963;53.008;6.754;2022-09-29T12:30:36;15.10;99.90
62007;DHT22;47963;53.008;6.754;2022-09-29T12:33:25;15.30;99.90
62007;DHT22;47963;53.008;6.754;2022-09-29T12:39:00;15.60;99.90
62007;DHT22;47963;53.008;6.754;2022-09-29T12:41:30;15.70;99.90
62007;DHT22;47963;53.008;6.754;2022-09-29T12:47:12;15.60;99.90
62007;DHT22;47963;53.008;6.754;2022-09-29T12:52:25;15.30;99.90
62007;DHT22;47963;53.008;6.754;2022-09-29T12:54:57;15.40;99.90
62007;DHT22;47963;53.008;6.754;2022-09-29T12:57:29;15.50;99.90
62007;DHT22;47963;53.008;6.754;2022-09-29T13:00:23;15.40;99.90
62007;DHT22;47963;53.008;6.754;2022-09-29T13:08:19;15.40;99.90
62007;DHT22;47963;53.008;6.754;2022-09-29T13:11:11;15.30;99.90
62007;DHT22;47963;53.008;6.754;2022-09-29T13:25:37;15.20;99.90
62007;DHT22;47963;53.008;6.754;2022-09-29T13:28:21;15.10;99.90
62007;DHT22;47963;53.008;6.754;2022-09-29T13:30:49;15.00;99.90
62007;DHT22;47963;53.008;6.754;2022-09-29T13:33:20;14.90;99.90
62007;DHT22;47963;53.008;6.754;2022-09-29T13:35:48;15.00;99.90
62007;DHT22;47963;53.008;6.754;2022-09-29T13:38:23;15.00;99.90
62007;DHT22;47963;53.008;6.754;2022-09-29T13:41:15;15.10;99.90
62007;DHT22;47963;53.008;6.754;2022-09-29T13:46:32;15.00;99.90
62007;DHT22;47963;53.008;6.754;2022-09-29T13:54:27;15.00;99.90
62007;DHT22;47963;53.008;6.754;2022-09-29T13:59:46;15.10;99.90
62007;DHT22;47963;53.008;6.754;2022-09-29T14:04:56;14.90;99.90
62007;DHT22;47963;53.008;6.754;2022-09-29T14:07:43;14.90;99.90
62007;DHT22;47963;53.008;6.754;2022-09-29T14:10:25;14.80;99.90
62007;DHT22;47963;53.008;6.754;2022-09-29T14:12:58;14.70;99.90
62007;DHT22;47963;53.008;6.754;2022-09-29T14:15:27;14.70;99.90
62007;DHT22;47963;53.008;6.754;2022-09-29T14:17:57;14.60;99.90
62007;DHT22;47963;53.008;6.754;2022-09-29T14:20:32;14.60;99.90
62007;DHT22;47963;53.008;6.754;2022-09-29T14:23:01;14.50;99.90
62007;DHT22;47963;53.008;6.754;2022-09-29T14:28:10;14.40;99.90
62007;DHT22;47963;53.008;6.754;2022-09-29T14:30:49;14.40;99.90
62007;DHT22;47963;53.008;6.754;2022-09-29T14:43:48;14.30;99.90
62007;DHT22;47963;53.008;6.754;2022-09-29T14:54:56;14.20;99.90
62007;DHT22;47963;53.008;6.754;2022-09-29T15:03:06;14.10;99.90
62007;DHT22;47963;53.008;6.754;2022-09-29T15:05:34;13.90;99.90
62007;DHT22;47963;53.008;6.754;2022-09-29T15:08:01;13.90;99.90
62007;DHT22;47963;53.008;6.754;2022-09-29T15:10:30;13.90;99.90
62007;DHT22;47963;53.008;6.754;2022-09-29T15:15:49;13.70;99.90
62007;DHT22;47963;53.008;6.754;2022-09-29T15:19:12;13.70;99.90
62007;DHT22;47963;53.008;6.754;2022-09-29T15:21:41;13.70;99.90
62007;DHT22;47963;53.008;6.754;2022-09-29T15:27:03;13.90;99.90
62007;DHT22;47963;53.008;6.754;2022-09-29T15:29:30;16.10;99.90
62007;DHT22;47963;53.008;6.754;2022-09-29T15:31:56;15.70;99.90
62007;DHT22;47963;53.008;6.754;2022-09-29T15:34:24;15.50;99.90
62007;DHT22;47963;53.008;6.754;2022-09-29T15:36:54;15.10;99.90
62007;DHT22;47963;53.008;6.754;2022-09-29T15:42:09;14.60;99.90
62007;DHT22;47963;53.008;6.754;2022-09-29T15:44:49;14.40;99.90
62007;DHT22;47963;53.008;6.754;2022-09-29T15:47:38;14.30;99.90
62007;DHT22;47963;53.008;6.754;2022-09-29T15:50:20;14.10;99.90
62007;DHT22;47963;53.008;6.754;2022-09-29T15:52:46;14.10;99.90
62007;DHT22;47963;53.008;6.754;2022-09-29T15:55:14;14.00;99.90
62007;DHT22;47963;53.008;6.754;2022-09-29T15:57:44;13.80;99.90
62007;DHT22;47963;53.008;6.754;2022-09-29T16:02:51;13.30;99.90
62007;DHT22;47963;53.008;6.754;2022-09-29T16:05:28;13.00;99.90
62007;DHT22;47963;53.008;6.754;2022-09-29T16:08:01;12.80;99.90
62007;DHT22;47963;53.008;6.754;2022-09-29T16:10:33;12.60;99.90
62007;DHT22;47963;53.008;6.754;2022-09-29T16:13:05;12.60;99.90
62007;DHT22;47963;53.008;6.754;2022-09-29T16:15:44;12.60;99.90
62007;DHT22;47963;53.008;6.754;2022-09-29T16:18:23;12.70;99.90
62007;DHT22;47963;53.008;6.754;2022-09-29T16:20:49;12.60;99.90
62007;DHT22;47963;53.008;6.754;2022-09-29T16:23:22;12.60;99.90
62007;DHT22;47963;53.008;6.754;2022-09-29T16:26:08;12.50;99.90
62007;DHT22;47963;53.008;6.754;2022-09-29T16:31:26;12.60;99.90
62007;DHT22;47963;53.008;6.754;2022-09-29T16:33:54;12.50;99.90
62007;DHT22;47963;53.008;6.754;2022-09-29T16:36:25;12.50;99.90
62007;DHT22;47963;53.008;6.754;2022-09-29T16:38:52;12.50;99.90
62007;DHT22;47963;53.008;6.754;2022-09-29T16:41:30;12.40;99.90
62007;DHT22;47963;53.008;6.754;2022-09-29T16:46:52;12.40;99.90
62007;DHT22;47963;53.008;6.754;2022-09-29T16:51:49;12.40;99.90
62007;DHT22;47963;53.008;6.754;2022-09-29T16:54:25;12.40;99.90
62007;DHT22;47963;53.008;6.754;2022-09-29T16:57:15;12.40;99.90
62007;DHT22;47963;53.008;6.754;2022-09-29T16:59:44;12.50;99.90
62007;DHT22;47963;53.008;6.754;2022-09-29T17:02:11;12.50;99.90
62007;DHT22;47963;53.008;6.754;2022-09-29T17:04:37;12.40;99.90
62007;DHT22;47963;53.008;6.754;2022-09-29T17:07:03;12.40;99.90
62007;DHT22;47963;53.008;6.754;2022-09-29T17:09:29;12.40;99.90
62007;DHT22;47963;53.008;6.754;2022-09-29T17:11:55;12.40;99.90
62007;DHT22;47963;53.008;6.754;2022-09-29T17:14:21;12.40;99.90
62007;DHT22;47963;53.008;6.754;2022-09-29T17:16:48;12.40;99.90
62007;DHT22;47963;53.008;6.754;2022-09-29T17:19:16;12.40;99.90
62007;DHT22;47963;53.008;6.754;2022-09-29T17:21:42;12.40;99.90
62007;DHT22;47963;53.008;6.754;2022-09-29T17:24:08;12.40;99.90
62007;DHT22;47963;53.008;6.754;2022-09-29T17:26:44;12.40;99.90
62007;DHT22;47963;53.008;6.754;2022-09-29T17:29:29;12.40;99.90
62007;DHT22;47963;53.008;6.754;2022-09-29T17:31:55;12.30;99.90
62007;DHT22;47963;53.008;6.754;2022-09-29T17:34:21;12.40;99.90
62007;DHT22;47963;53.008;6.754;2022-09-29T17:36:51;12.40;99.90
62007;DHT22;47963;53.008;6.754;2022-09-29T17:39:16;12.30;99.90
62007;DHT22;47963;53.008;6.754;2022-09-29T17:41:42;12.30;99.90
62007;DHT22;47963;53.008;6.754;2022-09-29T17:44:08;12.30;99.90
62007;DHT22;47963;53.008;6.754;2022-09-29T17:46:36;12.30;99.90
62007;DHT22;47963;53.008;6.754;2022-09-29T17:49:02;12.20;99.90
62007;DHT22;47963;53.008;6.754;2022-09-29T17:51:28;12.20;99.90
62007;DHT22;47963;53.008;6.754;2022-09-29T17:53:54;12.10;99.90
62007;DHT22;47963;53.008;6.754;2022-09-29T17:56:23;12.10;99.90
62007;DHT22;47963;53.008;6.754;2022-09-29T17:58:53;12.10;99.90
62007;DHT22;47963;53.008;6.754;2022-09-29T18:01:21;12.10;99.90
62007;DHT22;47963;53.008;6.754;2022-09-29T18:03:48;12.10;99.90
62007;DHT22;47963;53.008;6.754;2022-09-29T18:06:20;12.10;99.90
62007;DHT22;47963;53.008;6.754;2022-09-29T18:08:50;12.10;99.90
62007;DHT22;47963;53.008;6.754;2022-09-29T18:11:21;12.10;99.90
62007;DHT22;47963;53.008;6.754;2022-09-29T18:13:47;12.10;99.90
62007;DHT22;47963;53.008;6.754;2022-09-29T18:16:19;12.10;99.90
62007;DHT22;47963;53.008;6.754;2022-09-29T18:18:45;12.10;99.90
62007;DHT22;47963;53.008;6.754;2022-09-29T18:21:11;12.10;99.90
62007;DHT22;47963;53.008;6.754;2022-09-29T18:23:37;12.10;99.90
62007;DHT22;47963;53.008;6.754;2022-09-29T18:26:04;12.00;99.90
62007;DHT22;47963;53.008;6.754;2022-09-29T18:28:31;12.00;99.90
62007;DHT22;47963;53.008;6.754;2022-09-29T18:33:28;12.00;99.90
62007;DHT22;47963;53.008;6.754;2022-09-29T18:35:54;12.00;99.90
62007;DHT22;47963;53.008;6.754;2022-09-29T18:38:20;11.90;99.90
62007;DHT22;47963;53.008;6.754;2022-09-29T18:40:46;11.90;99.90
62007;DHT22;47963;53.008;6.754;2022-09-29T18:43:12;11.90;99.90
62007;DHT22;47963;53.008;6.754;2022-09-29T18:45:38;11.90;99.90
62007;DHT22;47963;53.008;6.754;2022-09-29T18:48:08;11.90;99.90
62007;DHT22;47963;53.008;6.754;2022-09-29T18:50:44;11.80;99.90
62007;DHT22;47963;53.008;6.754;2022-09-29T18:53:14;11.90;99.90
62007;DHT22;47963;53.008;6.754;2022-09-29T18:55:41;11.80;99.90
62007;DHT22;47963;53.008;6.754;2022-09-29T18:58:10;11.80;99.90
62007;DHT22;47963;53.008;6.754;2022-09-29T19:00:39;11.70;99.90
62007;DHT22;47963;53.008;6.754;2022-09-29T19:03:05;11.70;99.90
62007;DHT22;47963;53.008;6.754;2022-09-29T19:05:32;11.70;99.90
62007;DHT22;47963;53.008;6.754;2022-09-29T19:08:01;11.80;99.90
62007;DHT22;47963;53.008;6.754;2022-09-29T19:10:28;11.80;99.90
62007;DHT22;47963;53.008;6.754;2022-09-29T19:12:57;11.80;99.90
62007;DHT22;47963;53.008;6.754;2022-09-29T19:15:30;11.70;99.90